createdAt,value
2023-05-25T00:04:03.707Z,50.80
2023-05-25T00:09:00.700Z,51.51
2023-05-25T00:13:57.599Z,50.64
2023-05-25T00:18:57.605Z,51.81
2023-05-25T00:23:55.370Z,53.30
2023-05-25T00:28:52.438Z,53.20
2023-05-25T00:33:50.018Z,53.48
2023-05-25T00:38:46.629Z,53.29
2023-05-25T00:43:45.312Z,53.84
2023-05-25T00:48:42.595Z,54.49
2023-05-25T00:53:39.454Z,54.56
2023-05-25T00:58:40.606Z,53.75
2023-05-25T01:03:39.646Z,52.32
2023-05-25T01:08:37.362Z,52.12
2023-05-25T01:13:34.548Z,53.68
2023-05-25T01:18:34.388Z,54.31
2023-05-25T01:23:35.270Z,53.45
2023-05-25T01:28:35.565Z,52.60
2023-05-25T01:33:34.977Z,52.32
2023-05-25T01:38:34.479Z,52.90
2023-05-25T01:43:31.188Z,54.58
2023-05-25T01:48:36.436Z,54.03
2023-05-25T01:53:36.618Z,55.15
2023-05-25T01:58:35.547Z,56.94
2023-05-25T02:03:33.374Z,57.81
2023-05-25T02:08:30.184Z,58.53
2023-05-25T02:13:30.605Z,57.68
2023-05-25T02:18:27.332Z,57.78
2023-05-25T02:23:24.255Z,57.49
2023-05-25T02:28:20.922Z,58.75
2023-05-25T02:33:20.732Z,58.57
2023-05-25T02:38:17.383Z,58.81
2023-05-25T02:43:14.256Z,58.17
2023-05-25T02:48:10.972Z,58.26
2023-05-25T02:53:09.889Z,56.95
2023-05-25T02:58:06.769Z,56.35
2023-05-25T03:03:21.067Z,55.59
2023-05-25T03:08:18.570Z,56.03
2023-05-25T03:13:15.645Z,54.88
2023-05-25T03:18:12.694Z,53.97
2023-05-25T03:23:09.609Z,55.96
2023-05-25T03:28:10.621Z,57.49
2023-05-25T03:33:08.516Z,58.84
2023-05-25T03:38:11.996Z,58.94
2023-05-25T03:43:09.647Z,61.88
2023-05-25T03:48:06.626Z,62.93
2023-05-25T03:53:03.485Z,61.29
2023-05-25T03:58:00.267Z,60.51
2023-05-25T04:02:58.220Z,60.58
2023-05-25T04:07:55.457Z,61.28
2023-05-25T04:12:52.094Z,60.36
2023-05-25T04:17:49.358Z,59.56
2023-05-25T04:22:47.037Z,59.70
2023-05-25T04:27:47.413Z,61.26
2023-05-25T04:32:48.812Z,61.57
2023-05-25T04:38:02.462Z,61.45
2023-05-25T04:43:00.160Z,60.23
2023-05-25T04:48:01.176Z,58.37
2023-05-25T04:52:58.048Z,58.92
2023-05-25T04:57:55.542Z,58.45
2023-05-25T05:02:56.244Z,60.53
2023-05-25T05:07:53.686Z,60.81
2023-05-25T05:12:50.508Z,61.50
2023-05-25T05:17:48.424Z,60.71
2023-05-25T05:22:45.860Z,60.43
2023-05-25T05:27:42.879Z,59.45
2023-05-25T05:32:55.845Z,60.31
2023-05-25T05:38:02.406Z,61.53
2023-05-25T05:42:59.068Z,61.37
2023-05-25T05:47:57.867Z,60.58
2023-05-25T05:52:54.623Z,59.59
2023-05-25T05:57:51.728Z,59.39
2023-05-25T06:02:49.374Z,58.89
2023-05-25T06:07:52.617Z,58.59
2023-05-25T06:12:52.330Z,58.24
2023-05-25T06:17:49.792Z,57.77
2023-05-25T06:22:47.653Z,56.78
2023-05-25T06:27:45.307Z,56.38
2023-05-25T06:32:43.415Z,55.93
2023-05-25T06:37:44.250Z,54.95
2023-05-25T06:42:41.566Z,54.34
2023-05-25T06:47:58.230Z,53.65
2023-05-25T06:52:55.648Z,53.42
2023-05-25T06:57:52.629Z,54.48
2023-05-25T07:02:50.845Z,54.43
2023-05-25T07:07:49.963Z,54.36
2023-05-25T07:12:47.066Z,54.34
2023-05-25T07:17:45.333Z,54.67
2023-05-25T07:22:43.087Z,54.89
2023-05-25T07:27:42.333Z,54.54
2023-05-25T07:32:39.435Z,54.15
2023-05-25T07:37:36.783Z,52.88
2023-05-25T07:42:34.683Z,52.11
2023-05-25T07:47:33.331Z,52.92
2023-05-25T07:52:30.533Z,53.19
2023-05-25T07:57:29.794Z,53.18
2023-05-25T08:02:27.272Z,52.30
2023-05-25T08:07:25.195Z,51.44
2023-05-25T08:12:38.615Z,49.45
2023-05-25T08:17:39.725Z,48.51
2023-05-25T08:22:37.450Z,49.48
2023-05-25T08:27:35.997Z,49.46
2023-05-25T08:32:34.125Z,49.68
2023-05-25T08:37:31.648Z,49.30
2023-05-25T08:42:30.489Z,49.22
2023-05-25T08:47:36.487Z,49.73
2023-05-25T08:52:34.423Z,50.00
2023-05-25T08:57:50.097Z,49.18
2023-05-25T09:02:51.146Z,44.00
2023-05-25T09:07:48.674Z,42.79
2023-05-25T09:12:47.645Z,44.08
2023-05-25T09:17:46.677Z,43.17
2023-05-25T09:22:44.863Z,46.50
2023-05-25T09:27:42.179Z,45.02
2023-05-25T09:32:39.698Z,46.20
2023-05-25T09:37:37.402Z,46.14
2023-05-25T09:42:34.475Z,44.86
2023-05-25T09:47:31.797Z,45.67
2023-05-25T09:52:29.567Z,44.69
2023-05-25T09:57:27.360Z,44.50
2023-05-25T10:02:24.526Z,41.87
2023-05-25T10:07:22.269Z,42.24
2023-05-25T10:12:24.249Z,41.04
2023-05-25T10:17:23.458Z,39.66
2023-05-25T10:22:57.565Z,41.10
2023-05-25T10:27:59.853Z,41.15
2023-05-25T10:33:00.089Z,38.64
2023-05-25T10:37:58.601Z,39.31
2023-05-25T10:42:55.908Z,40.62
2023-05-25T10:47:53.681Z,39.21
2023-05-25T10:53:00.920Z,38.12
2023-05-25T10:58:17.044Z,36.54
2023-05-25T11:03:14.980Z,35.20
2023-05-25T11:08:44.677Z,36.89
2023-05-25T11:13:46.087Z,37.31
2023-05-25T11:18:54.358Z,36.47
2023-05-25T11:23:55.444Z,35.91
2023-05-25T11:28:53.143Z,34.94
2023-05-25T11:33:51.441Z,35.27
2023-05-25T11:39:02.465Z,35.60
2023-05-25T11:44:03.864Z,35.94
2023-05-25T11:49:00.829Z,35.02
2023-05-25T11:53:58.538Z,35.44
2023-05-25T11:58:55.574Z,36.27
2023-05-25T12:03:53.584Z,38.03
2023-05-25T12:08:50.762Z,32.89
2023-05-25T12:13:48.460Z,33.43
2023-05-25T12:18:47.432Z,33.80
2023-05-25T12:23:44.535Z,33.67
2023-05-25T12:28:41.376Z,33.24
2023-05-25T12:33:40.418Z,33.27
2023-05-25T12:38:38.906Z,32.81
2023-05-25T12:43:40.804Z,32.60
2023-05-25T12:49:39.351Z,32.74
2023-05-25T12:54:50.051Z,32.49
2023-05-25T13:05:17.401Z,33.75
2023-05-25T13:10:49.992Z,39.16
2023-05-25T13:15:49.915Z,40.67
2023-05-25T13:20:50.637Z,39.17
2023-05-25T13:25:49.404Z,38.69
2023-05-25T13:30:46.637Z,40.96
2023-05-25T13:35:57.862Z,39.94
2023-05-25T13:40:57.733Z,41.53
2023-05-25T13:45:59.473Z,40.75
2023-05-25T13:50:56.962Z,41.50
2023-05-25T13:55:53.898Z,39.81
2023-05-25T14:00:50.945Z,39.38
2023-05-25T14:05:47.900Z,38.56
2023-05-25T14:10:45.642Z,38.68
2023-05-25T14:15:43.871Z,39.86
2023-05-25T14:20:42.328Z,43.41
2023-05-25T14:25:39.421Z,42.80
2023-05-25T14:30:37.415Z,40.40
2023-05-25T14:35:34.763Z,39.06
2023-05-25T14:40:31.551Z,37.24
2023-05-25T14:45:35.206Z,38.14
2023-05-25T14:50:33.034Z,38.59
2023-05-25T14:55:30.481Z,38.96
2023-05-25T15:00:27.438Z,43.63
2023-05-25T15:05:24.401Z,48.90
2023-05-25T15:10:24.356Z,48.58
2023-05-25T15:15:23.981Z,52.33
2023-05-25T15:20:24.249Z,52.29
2023-05-25T15:25:35.035Z,54.64
2023-05-25T15:30:33.958Z,54.47
2023-05-25T15:35:33.492Z,52.34
2023-05-25T15:40:31.166Z,52.98
2023-05-25T15:45:28.262Z,55.94
2023-05-25T15:50:25.432Z,55.99
2023-05-25T15:55:23.331Z,57.63
2023-05-25T16:00:21.201Z,56.84
2023-05-25T16:05:18.194Z,56.29
2023-05-25T16:10:16.629Z,55.64
2023-05-25T16:15:13.277Z,54.36
2023-05-25T16:20:10.921Z,54.70
2023-05-25T16:25:10.589Z,54.30
2023-05-25T16:30:13.465Z,54.22
2023-05-25T16:35:11.412Z,53.48
2023-05-25T16:40:13.887Z,55.19
2023-05-25T16:45:10.919Z,54.53
2023-05-25T16:50:08.245Z,54.68
2023-05-25T16:55:06.654Z,56.66
2023-05-25T17:00:03.714Z,56.72
2023-05-25T17:05:00.666Z,57.24
2023-05-25T17:09:57.728Z,59.46
2023-05-25T17:14:55.194Z,57.61
2023-05-25T17:19:55.679Z,58.86
2023-05-25T17:24:52.559Z,59.16
2023-05-25T17:29:49.431Z,58.20
2023-05-25T17:34:49.530Z,59.20
2023-05-25T17:39:46.369Z,59.35
2023-05-25T17:44:43.381Z,58.57
2023-05-25T17:49:40.484Z,57.81
2023-05-25T17:54:38.223Z,57.32
2023-05-25T17:59:35.964Z,57.59
2023-05-25T18:04:32.925Z,58.07
2023-05-25T18:09:29.985Z,58.02
2023-05-25T18:14:28.648Z,58.02
2023-05-25T18:19:25.647Z,59.18
2023-05-25T18:24:22.661Z,60.23
2023-05-25T18:29:22.334Z,61.22
2023-05-25T18:34:20.221Z,61.17
2023-05-25T18:39:17.534Z,63.28
2023-05-25T18:44:15.847Z,62.75
2023-05-25T18:49:12.903Z,62.66
2023-05-25T18:54:12.718Z,63.92
2023-05-25T18:59:09.844Z,64.18
2023-05-25T19:04:06.825Z,64.02
2023-05-25T19:09:04.410Z,63.70
2023-05-25T19:14:02.036Z,63.87
2023-05-25T19:18:58.948Z,63.89
2023-05-25T19:23:57.491Z,64.96
2023-05-25T19:28:54.627Z,65.00
2023-05-25T19:33:52.236Z,64.39
2023-05-25T19:38:50.298Z,64.19
2023-05-25T19:43:48.998Z,65.06
2023-05-25T19:48:48.431Z,66.04
2023-05-25T19:53:47.492Z,66.68
2023-05-25T19:58:44.233Z,68.12
2023-05-25T20:03:42.037Z,67.30
2023-05-25T20:08:39.159Z,67.38
2023-05-25T20:13:36.918Z,66.15
2023-05-25T20:18:33.818Z,65.50
2023-05-25T20:23:30.597Z,65.92
2023-05-25T20:28:27.873Z,64.32
2023-05-25T20:33:28.213Z,64.01
2023-05-25T20:38:25.906Z,64.61
2023-05-25T20:43:22.934Z,65.61
2023-05-25T20:48:19.945Z,65.40
2023-05-25T20:53:18.794Z,64.79
2023-05-25T20:58:15.700Z,64.20
2023-05-25T21:03:12.609Z,63.49
2023-05-25T21:08:09.824Z,63.21
2023-05-25T21:13:07.432Z,61.90
2023-05-25T21:18:06.379Z,61.56
2023-05-25T21:23:03.424Z,61.23
2023-05-25T21:28:00.730Z,61.20
2023-05-25T21:32:58.493Z,59.88
2023-05-25T21:37:55.332Z,59.07
2023-05-25T21:42:53.043Z,59.13
2023-05-25T21:47:50.001Z,59.02
2023-05-25T21:52:47.324Z,60.20
2023-05-25T21:57:44.315Z,64.54
2023-05-25T22:02:41.413Z,67.27
2023-05-25T22:07:38.491Z,69.41
2023-05-25T22:12:36.075Z,70.49
2023-05-25T22:17:32.916Z,71.98
2023-05-25T22:22:30.507Z,73.66
2023-05-25T22:27:27.314Z,75.19
2023-05-25T22:32:26.620Z,76.17
2023-05-25T22:37:23.413Z,77.64
2023-05-25T22:42:20.105Z,77.24
2023-05-25T22:47:17.000Z,78.89
2023-05-25T22:52:14.916Z,77.36
2023-05-25T22:57:13.158Z,77.45
2023-05-25T23:02:09.987Z,77.13
2023-05-25T23:07:06.958Z,76.09
2023-05-25T23:12:04.675Z,75.45
2023-05-25T23:17:01.740Z,75.88
2023-05-25T23:21:58.551Z,73.66
2023-05-25T23:26:55.380Z,74.61
2023-05-25T23:31:53.030Z,75.96
2023-05-25T23:36:54.633Z,75.81
2023-05-25T23:41:51.651Z,77.92
2023-05-25T23:46:48.216Z,77.43
2023-05-25T23:51:45.586Z,78.08
2023-05-25T23:56:42.340Z,79.06
